createdAt,value
2022-12-08T00:01:06.446Z,43.78
2022-12-08T00:03:33.238Z,44.05
2022-12-08T00:06:18.391Z,44.74
2022-12-08T00:09:03.049Z,44.78
2022-12-08T00:11:29.332Z,44.67
2022-12-08T00:13:55.647Z,44.29
2022-12-08T00:16:21.977Z,44.23
2022-12-08T00:18:48.342Z,43.99
2022-12-08T00:21:14.629Z,44.02
2022-12-08T00:23:40.931Z,44.32
2022-12-08T00:26:07.193Z,44.51
2022-12-08T00:28:33.894Z,44.47
2022-12-08T00:31:00.229Z,44.24
2022-12-08T00:33:29.503Z,44.17
2022-12-08T00:35:55.785Z,44.14
2022-12-08T00:38:22.080Z,43.59
2022-12-08T00:40:48.383Z,43.84
2022-12-08T00:43:14.747Z,43.86
2022-12-08T00:45:41.200Z,44.29
2022-12-08T00:48:07.557Z,44.53
2022-12-08T00:50:33.928Z,44.30
2022-12-08T00:53:00.203Z,44.61
2022-12-08T00:55:26.532Z,44.38
2022-12-08T00:57:52.833Z,44.14
2022-12-08T01:00:19.319Z,43.07
2022-12-08T01:02:45.592Z,42.36
2022-12-08T01:05:11.864Z,41.80
2022-12-08T01:07:38.163Z,41.72
2022-12-08T01:10:04.985Z,41.28
2022-12-08T01:12:31.449Z,41.33
2022-12-08T01:15:02.027Z,41.42
2022-12-08T01:17:28.892Z,41.39
2022-12-08T01:19:55.171Z,41.21
2022-12-08T01:22:21.474Z,41.25
2022-12-08T01:24:47.770Z,41.02
2022-12-08T01:27:15.258Z,40.96
2022-12-08T01:29:41.511Z,41.11
2022-12-08T01:32:08.125Z,40.85
2022-12-08T01:34:34.722Z,40.57
2022-12-08T01:37:01.004Z,41.00
2022-12-08T01:39:27.361Z,40.65
2022-12-08T01:41:53.686Z,41.01
2022-12-08T01:44:19.994Z,40.46
2022-12-08T01:46:48.396Z,40.64
2022-12-08T01:49:20.644Z,40.69
2022-12-08T01:51:56.520Z,40.66
2022-12-08T01:54:23.386Z,40.76
2022-12-08T01:56:51.769Z,40.60
2022-12-08T01:59:18.057Z,40.63
2022-12-08T02:01:44.383Z,40.89
2022-12-08T02:04:10.715Z,41.29
2022-12-08T02:06:37.742Z,41.63
2022-12-08T02:09:04.138Z,42.42
2022-12-08T02:11:30.407Z,41.86
2022-12-08T02:13:57.269Z,41.16
2022-12-08T02:16:23.583Z,41.53
2022-12-08T02:19:07.989Z,41.98
2022-12-08T02:21:48.312Z,41.47
2022-12-08T02:24:17.622Z,41.64
2022-12-08T02:26:58.342Z,41.75
2022-12-08T02:29:31.187Z,41.79
2022-12-08T02:32:16.274Z,41.26
2022-12-08T02:34:47.514Z,41.03
2022-12-08T02:37:18.076Z,41.07
2022-12-08T02:39:45.800Z,41.00
2022-12-08T02:42:17.667Z,40.89
2022-12-08T02:44:48.524Z,41.22
2022-12-08T02:47:15.828Z,40.55
2022-12-08T02:49:42.120Z,40.48
2022-12-08T02:52:11.421Z,40.65
2022-12-08T02:54:37.690Z,41.53
2022-12-08T02:57:13.174Z,41.68
2022-12-08T02:59:43.170Z,41.33
2022-12-08T03:02:21.746Z,41.21
2022-12-08T03:04:58.292Z,40.38
2022-12-08T03:07:25.739Z,40.01
2022-12-08T03:09:56.364Z,40.20
2022-12-08T03:12:25.646Z,40.63
2022-12-08T03:14:53.160Z,40.47
2022-12-08T03:17:19.926Z,40.41
2022-12-08T03:19:46.288Z,41.31
2022-12-08T03:22:12.550Z,41.27
2022-12-08T03:24:39.517Z,41.00
2022-12-08T03:27:05.790Z,41.35
2022-12-08T03:29:32.085Z,40.69
2022-12-08T03:31:59.130Z,40.05
2022-12-08T03:34:25.751Z,38.82
2022-12-08T03:36:52.040Z,39.28
2022-12-08T03:39:18.319Z,39.18
2022-12-08T03:41:44.637Z,39.14
2022-12-08T03:44:10.905Z,39.19
2022-12-08T03:46:37.261Z,39.38
2022-12-08T03:49:03.549Z,39.39
2022-12-08T03:51:29.898Z,39.85
2022-12-08T03:53:56.175Z,39.44
2022-12-08T03:56:26.683Z,39.80
2022-12-08T03:58:53.405Z,39.47
2022-12-08T04:01:19.847Z,38.82
2022-12-08T04:03:46.252Z,38.70
2022-12-08T04:06:12.563Z,38.69
2022-12-08T04:08:38.848Z,38.41
2022-12-08T04:11:06.421Z,37.76
2022-12-08T04:13:35.893Z,37.64
2022-12-08T04:16:02.253Z,37.84
2022-12-08T04:18:28.564Z,38.40
2022-12-08T04:20:54.940Z,38.99
2022-12-08T04:23:21.213Z,38.79
2022-12-08T04:25:47.487Z,39.05
2022-12-08T04:28:13.776Z,38.75
2022-12-08T04:30:40.032Z,38.88
2022-12-08T04:33:06.308Z,38.81
2022-12-08T04:35:32.570Z,38.13
2022-12-08T04:37:58.900Z,37.97
2022-12-08T04:40:25.186Z,37.75
2022-12-08T04:42:51.475Z,37.55
2022-12-08T04:45:17.788Z,37.89
2022-12-08T04:47:44.067Z,37.79
2022-12-08T04:50:10.425Z,37.42
2022-12-08T04:52:36.744Z,38.13
2022-12-08T04:55:03.016Z,38.48
2022-12-08T04:57:29.273Z,38.58
2022-12-08T04:59:55.623Z,38.56
2022-12-08T05:02:21.944Z,38.30
2022-12-08T05:04:48.306Z,37.47
2022-12-08T05:07:14.589Z,37.38
2022-12-08T05:09:40.848Z,37.54
2022-12-08T05:12:07.212Z,36.95
2022-12-08T05:14:33.473Z,37.36
2022-12-08T05:17:02.554Z,37.71
2022-12-08T05:19:31.193Z,37.29
2022-12-08T05:21:57.472Z,37.29
2022-12-08T05:24:23.755Z,37.47
2022-12-08T05:26:50.015Z,37.59
2022-12-08T05:29:16.289Z,37.93
2022-12-08T05:31:42.578Z,37.85
2022-12-08T05:34:08.871Z,38.14
2022-12-08T05:36:35.158Z,37.85
2022-12-08T05:39:01.440Z,38.12
2022-12-08T05:41:27.694Z,37.78
2022-12-08T05:43:53.947Z,37.92
2022-12-08T05:46:20.287Z,37.75
2022-12-08T05:48:46.565Z,37.52
2022-12-08T05:51:19.871Z,37.19
2022-12-08T05:53:46.449Z,36.91
2022-12-08T05:56:12.784Z,36.96
2022-12-08T05:58:39.102Z,36.62
2022-12-08T06:01:05.409Z,37.27
2022-12-08T06:03:31.769Z,37.29
2022-12-08T06:05:58.114Z,36.93
2022-12-08T06:08:24.459Z,37.06
2022-12-08T06:10:50.854Z,37.25
2022-12-08T06:13:17.152Z,37.01
2022-12-08T06:15:43.416Z,37.00
2022-12-08T06:18:09.747Z,37.15
2022-12-08T06:20:36.003Z,36.15
2022-12-08T06:23:03.372Z,36.52
2022-12-08T06:25:29.643Z,36.85
2022-12-08T06:27:55.898Z,36.96
2022-12-08T06:30:22.195Z,37.18
2022-12-08T06:32:48.524Z,37.16
2022-12-08T06:35:14.792Z,37.01
2022-12-08T06:37:41.062Z,36.78
2022-12-08T06:40:07.874Z,36.53
2022-12-08T06:42:46.415Z,36.02
2022-12-08T06:45:13.280Z,36.23
2022-12-08T06:47:39.561Z,36.11
2022-12-08T06:50:06.386Z,36.71
2022-12-08T06:52:32.927Z,36.92
2022-12-08T06:54:59.205Z,36.69
2022-12-08T06:57:25.674Z,36.91
2022-12-08T06:59:51.947Z,36.39
2022-12-08T07:02:18.315Z,36.37
2022-12-08T07:04:44.678Z,36.63
2022-12-08T07:07:10.976Z,36.51
2022-12-08T07:09:37.292Z,36.12
2022-12-08T07:12:04.154Z,36.17
2022-12-08T07:14:30.437Z,35.81
2022-12-08T07:16:56.762Z,35.88
2022-12-08T07:19:23.079Z,35.98
2022-12-08T07:21:49.412Z,35.38
2022-12-08T07:24:15.677Z,36.44
2022-12-08T07:26:42.036Z,36.41
2022-12-08T07:29:09.557Z,36.37
2022-12-08T07:31:35.831Z,36.09
2022-12-08T07:34:02.126Z,36.39
2022-12-08T07:36:28.438Z,36.45
2022-12-08T07:38:54.795Z,36.79
2022-12-08T07:41:23.525Z,37.12
2022-12-08T07:43:50.020Z,37.13
2022-12-08T07:46:17.511Z,37.14
2022-12-08T07:48:43.869Z,36.44
2022-12-08T07:51:10.540Z,36.66
2022-12-08T07:53:42.286Z,36.96
2022-12-08T07:56:09.463Z,35.81
2022-12-08T07:58:35.759Z,36.39
2022-12-08T08:01:02.175Z,35.93
2022-12-08T08:03:28.594Z,36.09
2022-12-08T08:05:54.982Z,36.40
2022-12-08T08:08:21.328Z,35.90
2022-12-08T08:10:47.735Z,35.85
2022-12-08T08:13:14.021Z,35.53
2022-12-08T08:15:40.421Z,35.61
2022-12-08T08:18:06.904Z,34.77
2022-12-08T08:20:33.257Z,33.48
2022-12-08T08:22:59.556Z,33.24
2022-12-08T08:25:25.832Z,33.46
2022-12-08T08:27:52.162Z,32.71
2022-12-08T08:30:20.903Z,32.86
2022-12-08T08:32:47.845Z,34.49
2022-12-08T08:35:14.147Z,34.04
2022-12-08T08:37:43.157Z,34.72
2022-12-08T08:40:13.495Z,35.50
2022-12-08T08:42:39.918Z,36.18
2022-12-08T08:45:06.419Z,37.07
2022-12-08T08:47:32.690Z,36.20
2022-12-08T08:50:01.888Z,35.37
2022-12-08T08:52:28.478Z,35.56
2022-12-08T08:54:54.746Z,35.31
2022-12-08T08:57:25.483Z,35.88
2022-12-08T08:59:52.213Z,36.65
2022-12-08T09:02:19.012Z,35.83
2022-12-08T09:04:45.546Z,34.93
2022-12-08T09:07:11.923Z,34.83
2022-12-08T09:09:38.518Z,35.43
2022-12-08T09:12:05.037Z,36.39
2022-12-08T09:14:31.313Z,37.20
2022-12-08T09:16:57.604Z,37.05
2022-12-08T09:19:23.876Z,37.49
2022-12-08T09:21:50.141Z,36.51
2022-12-08T09:24:16.530Z,36.88
2022-12-08T09:26:43.729Z,35.65
2022-12-08T09:29:10.289Z,35.22
2022-12-08T09:31:36.671Z,34.96
2022-12-08T09:34:03.439Z,35.10
2022-12-08T09:36:29.869Z,35.50
2022-12-08T09:38:56.148Z,36.71
2022-12-08T09:41:36.838Z,36.14
2022-12-08T09:44:25.627Z,36.60
2022-12-08T09:46:52.284Z,35.75
2022-12-08T09:49:19.509Z,36.05
2022-12-08T09:51:46.156Z,35.59
2022-12-08T09:54:15.800Z,35.23
2022-12-08T09:56:42.102Z,35.48
2022-12-08T09:59:08.309Z,35.61
2022-12-08T10:01:38.007Z,33.34
2022-12-08T10:04:04.604Z,33.82
2022-12-08T10:06:31.771Z,34.64
2022-12-08T10:09:03.488Z,34.86
2022-12-08T10:11:37.135Z,35.67
2022-12-08T10:14:07.932Z,35.96
2022-12-08T10:16:35.040Z,35.93
2022-12-08T10:19:02.352Z,35.51
2022-12-08T10:21:28.785Z,35.62
2022-12-08T10:24:00.045Z,33.32
2022-12-08T10:26:26.556Z,34.17
2022-12-08T10:28:52.841Z,34.51
2022-12-08T10:31:22.769Z,34.69
2022-12-08T10:33:57.813Z,34.00
2022-12-08T10:36:27.559Z,35.07
2022-12-08T10:38:53.821Z,33.90
2022-12-08T10:41:20.688Z,33.69
2022-12-08T10:43:48.024Z,34.87
2022-12-08T10:46:18.695Z,32.79
2022-12-08T10:48:49.361Z,33.68
2022-12-08T10:51:22.234Z,32.64
2022-12-08T10:53:48.504Z,32.95
2022-12-08T10:56:15.305Z,33.23
2022-12-08T10:58:42.259Z,32.34
2022-12-08T11:01:24.658Z,33.19
2022-12-08T11:03:51.950Z,33.92
2022-12-08T11:06:31.186Z,34.21
2022-12-08T11:08:58.184Z,35.14
2022-12-08T11:11:44.263Z,33.77
2022-12-08T11:14:15.435Z,34.51
2022-12-08T11:16:42.117Z,34.32
2022-12-08T11:19:15.697Z,33.67
2022-12-08T11:21:42.788Z,33.49
2022-12-08T11:24:20.398Z,34.05
2022-12-08T11:26:49.349Z,34.80
2022-12-08T11:29:17.307Z,33.23
2022-12-08T11:31:50.819Z,31.94
2022-12-08T11:34:29.692Z,31.69
2022-12-08T11:36:55.991Z,32.33
2022-12-08T11:39:22.285Z,33.48
2022-12-08T11:41:48.622Z,33.34
2022-12-08T11:44:24.151Z,33.81
2022-12-08T11:46:56.857Z,34.34
2022-12-08T11:49:23.134Z,34.69
2022-12-08T11:52:12.005Z,34.81
2022-12-08T11:54:42.898Z,32.13
2022-12-08T11:57:11.672Z,33.20
2022-12-08T11:59:39.601Z,33.86
2022-12-08T12:02:05.940Z,33.66
2022-12-08T12:04:41.298Z,32.34
2022-12-08T12:07:25.987Z,33.68
2022-12-08T12:10:11.563Z,33.50
2022-12-08T12:12:50.131Z,33.85
2022-12-08T12:15:21.035Z,33.60
2022-12-08T12:18:00.830Z,33.55
2022-12-08T12:20:30.140Z,34.35
2022-12-08T12:23:19.800Z,32.71
2022-12-08T12:25:48.166Z,33.30
2022-12-08T12:28:14.460Z,31.30
2022-12-08T12:30:49.955Z,32.18
2022-12-08T12:33:17.571Z,33.42
2022-12-08T12:35:43.956Z,33.24
2022-12-08T12:38:42.729Z,34.02
2022-12-08T12:41:09.183Z,34.71
2022-12-08T12:43:36.035Z,34.70
2022-12-08T12:46:21.099Z,34.66
2022-12-08T12:48:47.403Z,34.78
2022-12-08T12:51:43.155Z,35.22
2022-12-08T12:54:19.847Z,36.01
2022-12-08T12:56:46.861Z,35.12
2022-12-08T12:59:22.799Z,35.28
2022-12-08T13:01:51.080Z,36.13
2022-12-08T13:04:17.476Z,35.45
2022-12-08T13:06:45.500Z,35.67
2022-12-08T13:09:22.006Z,35.48
2022-12-08T13:11:52.019Z,35.67
2022-12-08T13:14:37.236Z,36.60
2022-12-08T13:17:05.656Z,35.88
2022-12-08T13:19:32.144Z,34.98
2022-12-08T13:21:58.697Z,35.08
2022-12-08T13:24:24.963Z,35.49
2022-12-08T13:26:51.184Z,36.28
2022-12-08T13:29:21.713Z,35.07
2022-12-08T13:32:08.316Z,34.67
2022-12-08T13:34:34.682Z,34.42
2022-12-08T13:37:02.256Z,33.40
2022-12-08T13:39:41.009Z,35.27
2022-12-08T13:42:13.308Z,36.39
2022-12-08T13:52:59.960Z,36.64
2022-12-08T13:54:45.534Z,35.02
2022-12-08T13:59:20.468Z,34.78
2022-12-08T14:01:49.826Z,34.34
2022-12-08T14:07:03.949Z,34.03
2022-12-08T14:09:36.429Z,33.07
2022-12-08T14:12:06.884Z,33.09
2022-12-08T14:15:01.649Z,32.94
2022-12-08T14:17:24.876Z,33.46
2022-12-08T14:19:58.350Z,33.05
2022-12-08T14:22:24.886Z,33.99
2022-12-08T14:24:52.177Z,34.13
2022-12-08T14:27:19.377Z,33.73
2022-12-08T14:29:48.880Z,34.24
2022-12-08T14:32:19.456Z,34.06
2022-12-08T14:34:45.981Z,36.09
2022-12-08T14:37:12.281Z,35.07
2022-12-08T14:39:38.776Z,35.91
2022-12-08T14:42:05.073Z,35.05
2022-12-08T14:44:32.084Z,34.38
2022-12-08T14:47:05.883Z,35.03
2022-12-08T14:49:36.346Z,35.61
2022-12-08T14:52:02.677Z,35.53
2022-12-08T14:54:29.644Z,35.51
2022-12-08T14:56:56.223Z,35.90
2022-12-08T14:59:26.278Z,36.08
2022-12-08T15:01:53.890Z,35.28
2022-12-08T15:04:22.998Z,35.20
2022-12-08T15:06:54.160Z,35.08
2022-12-08T15:09:32.637Z,35.58
2022-12-08T15:12:05.894Z,36.86
2022-12-08T15:14:39.814Z,37.34
2022-12-08T15:17:26.094Z,36.77
2022-12-08T15:19:56.004Z,35.69
2022-12-08T15:22:22.848Z,34.96
2022-12-08T15:24:49.122Z,35.69
2022-12-08T15:27:16.453Z,34.71
2022-12-08T15:29:42.741Z,35.22
2022-12-08T15:32:09.040Z,35.01
2022-12-08T15:34:37.147Z,34.79
2022-12-08T15:37:03.456Z,34.05
2022-12-08T15:39:36.704Z,34.86
2022-12-08T15:42:03.504Z,34.87
2022-12-08T15:44:32.364Z,35.09
2022-12-08T15:46:58.756Z,34.81
2022-12-08T15:49:25.126Z,34.20
2022-12-08T15:51:55.704Z,34.25
2022-12-08T15:54:26.979Z,35.46
2022-12-08T15:57:17.964Z,34.52
2022-12-08T15:59:39.872Z,34.95
2022-12-08T16:02:06.235Z,35.93
2022-12-08T16:07:23.504Z,35.85
2022-12-08T16:09:49.952Z,36.26
2022-12-08T16:13:26.683Z,36.11
2022-12-08T16:18:13.012Z,34.47
2022-12-08T16:21:06.134Z,33.88
2022-12-08T16:23:42.429Z,33.97
2022-12-08T16:26:44.091Z,34.92
2022-12-08T16:28:57.313Z,34.49
2022-12-08T16:31:23.792Z,34.32
2022-12-08T16:33:50.103Z,35.27
2022-12-08T16:36:16.411Z,35.56
2022-12-08T16:38:42.673Z,35.37
2022-12-08T16:41:36.698Z,34.91
2022-12-08T16:44:03.706Z,35.05
2022-12-08T16:46:30.036Z,35.30
2022-12-08T16:48:59.205Z,34.68
2022-12-08T16:51:27.219Z,34.89
2022-12-08T16:53:54.077Z,34.87
2022-12-08T16:56:20.840Z,35.27
2022-12-08T16:58:47.249Z,34.85
2022-12-08T17:01:14.286Z,34.64
2022-12-08T17:03:41.210Z,35.90
2022-12-08T17:06:08.316Z,36.41
2022-12-08T17:08:34.586Z,37.08
2022-12-08T17:11:11.628Z,36.23
2022-12-08T17:13:41.257Z,34.40
2022-12-08T17:16:08.459Z,34.30
2022-12-08T17:18:34.804Z,34.58
2022-12-08T17:21:01.059Z,34.41
2022-12-08T17:23:27.391Z,34.35
2022-12-08T17:25:57.828Z,35.60
2022-12-08T17:28:51.639Z,35.47
2022-12-08T17:31:13.668Z,35.34
2022-12-08T17:33:39.990Z,35.18
2022-12-08T17:36:07.890Z,35.46
2022-12-08T17:38:34.162Z,34.52
2022-12-08T17:41:03.902Z,34.01
2022-12-08T17:43:30.234Z,35.12
2022-12-08T17:45:56.550Z,34.83
2022-12-08T17:48:22.855Z,34.11
2022-12-08T17:50:49.211Z,34.62
2022-12-08T17:53:15.474Z,35.11
2022-12-08T17:55:41.960Z,33.46
2022-12-08T17:58:08.279Z,33.98
2022-12-08T18:00:35.227Z,34.76
2022-12-08T18:03:01.520Z,36.07
2022-12-08T18:05:27.796Z,35.17
2022-12-08T18:07:54.141Z,34.07
2022-12-08T18:10:20.483Z,35.26
2022-12-08T18:12:46.757Z,35.50
2022-12-08T18:15:15.225Z,36.44
2022-12-08T18:17:41.482Z,35.56
2022-12-08T18:20:08.166Z,36.78
2022-12-08T18:22:34.658Z,36.74
2022-12-08T18:25:00.937Z,36.88
2022-12-08T18:27:27.196Z,36.50
2022-12-08T18:29:53.561Z,35.85
2022-12-08T18:32:23.422Z,35.63
2022-12-08T18:34:50.061Z,35.42
2022-12-08T18:37:16.383Z,36.86
2022-12-08T18:39:42.640Z,36.66
2022-12-08T18:42:23.990Z,36.44
2022-12-08T18:44:56.187Z,36.98
2022-12-08T18:47:22.472Z,36.33
2022-12-08T18:49:48.983Z,36.04
2022-12-08T18:52:18.969Z,35.77
2022-12-08T18:55:05.880Z,34.64
2022-12-08T18:57:33.224Z,35.01
2022-12-08T18:59:59.567Z,35.69
2022-12-08T19:02:25.982Z,34.66
2022-12-08T19:04:54.586Z,34.38
2022-12-08T19:07:20.845Z,34.36
2022-12-08T19:09:47.191Z,35.00
2022-12-08T19:12:13.456Z,35.52
2022-12-08T19:14:40.171Z,36.62
2022-12-08T19:17:06.499Z,36.23
2022-12-08T19:19:32.898Z,36.23
2022-12-08T19:21:59.178Z,35.43
2022-12-08T19:24:25.588Z,35.33
2022-12-08T19:26:51.978Z,35.49
2022-12-08T19:29:18.289Z,35.09
2022-12-08T19:31:44.728Z,34.67
2022-12-08T19:34:11.927Z,33.79
2022-12-08T19:36:42.345Z,34.00
2022-12-08T19:39:29.568Z,34.02
2022-12-08T19:42:14.678Z,33.78
2022-12-08T19:44:52.730Z,33.99
2022-12-08T19:47:22.846Z,33.16
2022-12-08T19:49:49.194Z,34.31
2022-12-08T19:52:15.501Z,33.96
2022-12-08T19:54:41.780Z,35.03
2022-12-08T19:57:08.100Z,33.89
2022-12-08T19:59:34.361Z,34.45
2022-12-08T20:02:00.771Z,33.52
2022-12-08T20:04:27.134Z,34.47
2022-12-08T20:06:53.647Z,33.81
2022-12-08T20:09:20.218Z,33.43
2022-12-08T20:11:46.529Z,33.65
2022-12-08T20:14:12.832Z,33.80
2022-12-08T20:16:41.011Z,34.86
2022-12-08T20:19:07.530Z,34.41
2022-12-08T20:21:33.826Z,34.16
2022-12-08T20:24:00.109Z,34.59
2022-12-08T20:26:26.387Z,34.29
2022-12-08T20:28:52.676Z,33.77
2022-12-08T20:31:22.999Z,34.50
2022-12-08T20:33:49.414Z,35.43
2022-12-08T20:36:17.959Z,35.39
2022-12-08T20:38:44.820Z,36.10
2022-12-08T20:41:11.234Z,36.45
2022-12-08T20:43:37.676Z,35.25
2022-12-08T20:46:07.467Z,35.01
2022-12-08T20:48:33.979Z,35.84
2022-12-08T20:51:00.396Z,35.39
2022-12-08T20:53:26.806Z,34.98
2022-12-08T20:55:53.287Z,34.26
2022-12-08T20:58:19.642Z,34.30
2022-12-08T21:00:46.012Z,35.03
2022-12-08T21:03:12.716Z,34.30
2022-12-08T21:05:39.469Z,34.03
2022-12-08T21:08:06.487Z,33.70
2022-12-08T21:10:33.150Z,34.43
2022-12-08T21:13:01.773Z,35.27
2022-12-08T21:15:28.310Z,35.13
2022-12-08T21:17:57.450Z,34.92
2022-12-08T21:20:23.965Z,34.47
2022-12-08T21:22:50.299Z,34.15
2022-12-08T21:25:16.820Z,34.16
2022-12-08T21:27:43.230Z,33.68
2022-12-08T21:30:10.342Z,34.65
2022-12-08T21:32:40.207Z,35.82
2022-12-08T21:35:07.062Z,34.39
2022-12-08T21:37:33.461Z,34.16
2022-12-08T21:39:59.727Z,33.30
2022-12-08T21:42:44.455Z,33.22
2022-12-08T21:45:14.838Z,33.19
2022-12-08T21:47:41.325Z,34.09
2022-12-08T21:50:08.348Z,33.80
2022-12-08T21:52:38.541Z,33.15
2022-12-08T21:55:05.386Z,34.41
2022-12-08T21:57:31.719Z,34.67
2022-12-08T21:59:58.044Z,35.28
2022-12-08T22:02:24.552Z,36.28
2022-12-08T22:04:52.477Z,35.03
2022-12-08T22:07:19.628Z,34.33
2022-12-08T22:09:46.017Z,34.03
2022-12-08T22:12:12.888Z,34.76
2022-12-08T22:14:42.204Z,34.63
2022-12-08T22:17:08.554Z,34.31
2022-12-08T22:19:34.912Z,35.00
2022-12-08T22:22:01.196Z,34.81
2022-12-08T22:24:29.373Z,34.42
2022-12-08T22:26:55.649Z,34.55
2022-12-08T22:29:22.167Z,34.67
2022-12-08T22:31:48.580Z,34.93
2022-12-08T22:34:14.940Z,34.57
2022-12-08T22:36:42.210Z,35.59
2022-12-08T22:39:09.598Z,36.17
2022-12-08T22:41:36.119Z,36.33
2022-12-08T22:44:04.968Z,35.49
2022-12-08T22:46:31.323Z,35.23
2022-12-08T22:48:57.638Z,33.92
2022-12-08T22:51:23.990Z,33.65
2022-12-08T22:53:50.323Z,34.67
2022-12-08T22:56:17.627Z,35.21
2022-12-08T22:58:44.448Z,34.68
2022-12-08T23:01:30.044Z,34.28
2022-12-08T23:03:56.829Z,34.90
2022-12-08T23:06:23.664Z,34.47
2022-12-08T23:08:50.353Z,34.67
2022-12-08T23:11:16.702Z,34.95
2022-12-08T23:13:42.979Z,35.20
2022-12-08T23:16:09.633Z,35.34
2022-12-08T23:18:36.097Z,33.24
2022-12-08T23:21:03.340Z,33.59
2022-12-08T23:23:29.790Z,33.31
2022-12-08T23:25:56.103Z,33.08
2022-12-08T23:28:22.412Z,33.68
2022-12-08T23:30:48.778Z,34.46
2022-12-08T23:33:15.234Z,33.64
2022-12-08T23:35:41.725Z,34.23
2022-12-08T23:38:08.081Z,34.73
2022-12-08T23:40:34.368Z,35.50
2022-12-08T23:43:00.726Z,35.18
2022-12-08T23:45:27.025Z,35.40
2022-12-08T23:47:53.321Z,34.82
2022-12-08T23:50:19.665Z,35.51
2022-12-08T23:52:45.981Z,35.81
2022-12-08T23:55:12.364Z,35.59
2022-12-08T23:57:38.794Z,34.87
